Terminal Aerodrome Forecast
Issued by NWS

Home | Current Version | Previous Version | Text Only | Print | Product List | Glossary On
Versions: 1 2 3 4 5 6 7 8 9 10 11 12 13 14 15 16 17 18 19
000
FTUS41 KBGM 222300
TAFELM
TAF
KELM 222327Z 2300/2324 VRB02KT P6SM FEW060
      TEMPO 2309/2312 4SM BR
     FM231300 25010KT P6SM BKN050 PROB30 2318/2320 4SM TSRA OVC035CB
     FM232000 31010KT P6SM BKN045=

USA.gov is the U.S. government's official web portal to all federal, state and local government web resources and services.